Weather History for Whiteville, NC

Change the Weather History Date:

Thursday, March 21, 2013

  Actual Average (KLBT) Record (KLBT)
Temperature  
Mean Temperature 43 °F 56 °F  
Max Temperature 51 °F 68 °F 82 °F (2012)
Min Temperature 35 °F 43 °F 32 °F (2013)
Degree Days  
Heating Degree Days 22 10  
Month to date heating degree days 262  
Since 1 July heating degree days 2492  
Cooling Degree Days 0 0  
Month to date cooling degree days 0  
Year to date cooling degree days 3  
Moisture  
Dew Point 21 °F    
Average Humidity 47    
Maximum Humidity 91    
Minimum Humidity 20    
Precipitation  
Precipitation 0.00 in 0.09 in 0.50 in (2002)
Month to date precipitation 2.26  
Year to date precipitation 8.13  
Snow  
Snow 0.00 in - - ()
Month to date snowfall  
Since 1 July snowfall  
Snow Depth -    
Sea Level Pressure  
Sea Level Pressure 29.80 in    
Wind  
Wind Speed 4 mph (WNW)    
Max Wind Speed 13 mph    
Max Gust Speed 23 mph    
Visibility 10 miles    
Events      
T = Trace of Precipitation, MM = Missing Value Source: NWS Daily Summary

Daily Weather History Graph

Daily Weather History Graph

Search for Another Location

Airport:

Trip Planner

Search our weather history database for the weather conditions in past years. The results will help you decide how hot, cold, wet, or windy it might be!

Date:

Astronomy

Mar. 21, 2013 Rise Set
Actual Time 7:16 AM EDT 7:27 PM EDT
Civil Twilight 6:51 AM EDT 7:52 PM EDT
Nautical Twilight 6:22 AM EDT 8:21 PM EDT
Astronomical Twilight 5:53 AM EDT 8:51 PM EDT
Moon 2:08 PM EDT (3/21) 3:24 AM EDT (3/21)
Length of Visible Light 13h 00m
Length of Day
12h 10m
Waxing Gibbous, 68% of the Moon is Illuminated
Mar 21
Waxing Gibbous
Mar 27
Full
Apr 3
Last Quarter
Apr 10
New
Apr 18
First Quarter

Hourly Weather History & Observations

Time (EDT) Temp. Windchill Dew Point Humidity Pressure Visibility Wind Dir Wind Speed Gust Speed Precip Events Conditions
12:15 AM 36.7 °F - 33.3 °F 87% 29.80 in 10.0 mi Calm Calm - N/A   Clear
12:35 AM 35.8 °F - 33.1 °F 90% 29.80 in 10.0 mi Calm Calm - N/A   Clear
12:55 AM 35.8 °F - 32.9 °F 89% 29.78 in 10.0 mi Calm Calm - N/A   Clear
1:15 AM 35.4 °F - 32.9 °F 91% 29.77 in 10.0 mi Calm Calm - N/A   Clear
1:35 AM 35.1 °F 32.2 °F 32.2 °F 89% 29.77 in 10.0 mi SW 3.5 mph - N/A   Clear
2:15 AM 36.5 °F - 32.9 °F 87% 29.76 in 10.0 mi Calm Calm - N/A   Clear
2:35 AM 36.1 °F 32.3 °F 32.2 °F 86% 29.75 in 10.0 mi South 4.6 mph - N/A   Clear
2:55 AM 38.7 °F 35.2 °F 32.5 °F 79% 29.75 in 10.0 mi SW 4.6 mph - N/A   Clear
3:15 AM 37.6 °F 35.1 °F 32.2 °F 81% 29.73 in 10.0 mi SW 3.5 mph - N/A   Clear
3:35 AM 36.1 °F 33.5 °F 32.0 °F 85% 29.72 in 10.0 mi SSW 3.5 mph - N/A   Clear
3:55 AM 38.1 °F - 32.7 °F 81% 29.73 in 10.0 mi Calm Calm - N/A   Clear
4:15 AM 38.5 °F - 32.4 °F 79% 29.72 in 10.0 mi Calm Calm - N/A   Clear
4:35 AM 39.7 °F 37.6 °F 31.3 °F 72% 29.72 in 10.0 mi WSW 3.5 mph - N/A   Clear
4:55 AM 38.8 °F 36.5 °F 31.1 °F 74% 29.72 in 10.0 mi West 3.5 mph - N/A   Clear
5:15 AM 38.7 °F 35.2 °F 30.0 °F 71% 29.73 in 10.0 mi West 4.6 mph - N/A   Clear
5:35 AM 38.7 °F 35.2 °F 28.9 °F 68% 29.74 in 10.0 mi West 4.6 mph - N/A   Clear
5:55 AM 39.2 °F 34.2 °F 27.7 °F 63% 29.75 in 10.0 mi West 6.9 mph - N/A   Clear
6:15 AM 39.2 °F 33.6 °F 27.3 °F 62% 29.76 in 10.0 mi West 8.1 mph - N/A   Clear
6:35 AM 39.2 °F 35.0 °F 27.5 °F 63% 29.77 in 10.0 mi WNW 5.8 mph - N/A   Clear
6:55 AM 38.8 °F 33.8 °F 27.5 °F 64% 29.77 in 10.0 mi West 6.9 mph - N/A   Clear
7:15 AM 38.5 °F 34.1 °F 28.0 °F 66% 29.78 in 10.0 mi WNW 5.8 mph - N/A   Clear
7:35 AM 38.5 °F 34.1 °F 26.8 °F 63% 29.79 in 10.0 mi West 5.8 mph - N/A   Clear
7:55 AM 38.8 °F 36.5 °F 26.2 °F 61% 29.79 in 10.0 mi West 3.5 mph - N/A   Clear
8:15 AM 39.2 °F 35.0 °F 26.8 °F 61% 29.79 in 10.0 mi West 5.8 mph - N/A   Clear
8:55 AM 41.0 °F 38.0 °F 24.4 °F 52% 29.80 in 10.0 mi WNW 4.6 mph - N/A   Clear
9:15 AM 41.5 °F 36.4 °F 23.5 °F 49% 29.80 in 10.0 mi WNW 8.1 mph - N/A   Clear
9:35 AM 42.3 °F 40.5 °F 23.7 °F 48% 29.80 in 10.0 mi West 3.5 mph - N/A   Clear
9:55 AM 42.8 °F 38.6 °F 23.4 °F 46% 29.80 in 10.0 mi WNW 6.9 mph 17.3 mph N/A   Clear
10:15 AM 43.7 °F 40.3 °F 23.4 °F 45% 29.80 in 10.0 mi NW 5.8 mph - N/A   Clear
10:35 AM 44.2 °F 39.7 °F 23.9 °F 45% 29.81 in 10.0 mi NW 8.1 mph - N/A   Clear
10:55 AM 44.4 °F 41.2 °F 24.3 °F 45% 29.80 in 10.0 mi NW 5.8 mph - N/A   Clear
11:15 AM 44.8 °F 40.4 °F 24.8 °F 46% 29.80 in 10.0 mi NW 8.1 mph - N/A   Scattered Clouds
11:35 AM 46.2 °F 42.2 °F 24.6 °F 43% 29.79 in 10.0 mi WNW 8.1 mph - N/A   Scattered Clouds
11:55 AM 46.4 °F 43.5 °F 22.8 °F 39% 29.80 in 10.0 mi WNW 5.8 mph - N/A   Clear
12:15 PM 46.4 °F 41.9 °F 19.8 °F 35% 29.80 in 10.0 mi WNW 9.2 mph 18.4 mph N/A   Clear
12:35 PM 47.7 °F - 19.8 °F 33% 29.80 in 10.0 mi NW 6.9 mph - N/A   Clear
12:55 PM 47.5 °F - 13.6 °F 26% 29.81 in 10.0 mi West 10.4 mph 20.7 mph N/A   Clear
1:15 PM 48.4 °F - 14.2 °F 25% 29.80 in 10.0 mi West 6.9 mph - N/A   Clear
1:35 PM 48.6 °F - 13.3 °F 24% 29.79 in 10.0 mi West 12.7 mph 17.3 mph N/A   Clear
1:55 PM 49.8 °F - 15.4 °F 25% 29.79 in 10.0 mi West 8.1 mph 19.6 mph N/A   Clear
2:15 PM 50.5 °F - 14.5 °F 24% 29.78 in 10.0 mi West 8.1 mph - N/A   Clear
2:35 PM 50.5 °F - 14.2 °F 23% 29.77 in 10.0 mi West 5.8 mph - N/A   Clear
2:55 PM 50.7 °F - 12.0 °F 21% 29.77 in 10.0 mi WNW 9.2 mph 18.4 mph N/A   Clear
3:15 PM 51.4 °F - 13.8 °F 22% 29.77 in 10.0 mi NW 6.9 mph 16.1 mph N/A   Clear
3:35 PM 51.1 °F - 12.4 °F 21% 29.77 in 10.0 mi West 6.9 mph 17.3 mph N/A   Clear
3:55 PM 51.8 °F - 13.1 °F 21% 29.77 in 10.0 mi West 4.6 mph - N/A   Clear
4:15 PM 51.4 °F - 12.6 °F 21% 29.77 in 10.0 mi West 8.1 mph - N/A   Clear
4:35 PM 51.4 °F - 11.8 °F 21% 29.77 in 10.0 mi NW 10.4 mph 23.0 mph N/A   Clear
4:55 PM 51.8 °F - 12.2 °F 21% 29.77 in 10.0 mi WNW 5.8 mph 17.3 mph N/A   Clear
5:15 PM 51.4 °F - 11.3 °F 20% 29.78 in 10.0 mi WNW 8.1 mph 20.7 mph N/A   Clear
5:35 PM 51.3 °F - 11.7 °F 21% 29.79 in 10.0 mi West 4.6 mph - N/A   Clear
5:55 PM 50.9 °F - 11.7 °F 21% 29.80 in 10.0 mi West 5.8 mph - N/A   Clear
6:15 PM 49.8 °F - 10.4 °F 20% 29.80 in 10.0 mi NW 8.1 mph - N/A   Clear
6:35 PM 49.3 °F - 10.2 °F 21% 29.81 in 10.0 mi WNW 5.8 mph - N/A   Clear
6:55 PM 48.4 °F - 11.7 °F 23% 29.82 in 10.0 mi NNW 5.8 mph - N/A   Clear
7:15 PM 46.9 °F - 12.0 °F 24% 29.83 in 10.0 mi NNW 3.5 mph - N/A   Clear
7:35 PM 46.0 °F - 12.2 °F 26% 29.85 in 10.0 mi Calm Calm - N/A   Clear
7:55 PM 44.8 °F 43.3 °F 13.6 °F 28% 29.86 in 10.0 mi WNW 3.5 mph - N/A   Clear
8:15 PM 43.7 °F - 15.1 °F 32% 29.87 in 10.0 mi Calm Calm - N/A   Clear
8:35 PM 42.4 °F - 15.4 °F 34% 29.87 in 10.0 mi Calm Calm - N/A   Clear
8:55 PM 42.1 °F - 15.3 °F 34% 29.88 in 10.0 mi Calm Calm - N/A   Clear
9:15 PM 39.7 °F - 17.2 °F 40% 29.90 in 10.0 mi Calm Calm - N/A   Clear
9:35 PM 39.0 °F - 19.2 °F 45% 29.90 in 10.0 mi Calm Calm - N/A   Clear
9:55 PM 39.7 °F - 16.0 °F 38% 29.91 in 10.0 mi Calm Calm - N/A   Clear
10:15 PM 39.2 °F - 16.0 °F 39% 29.92 in 10.0 mi Calm Calm - N/A   Clear
10:35 PM 39.4 °F 36.1 °F 15.6 °F 38% 29.93 in 10.0 mi North 4.6 mph - N/A   Clear
10:55 PM 39.0 °F 36.8 °F 15.3 °F 38% 29.94 in 10.0 mi North 3.5 mph - N/A   Clear
11:15 PM 38.3 °F - 15.1 °F 39% 29.95 in 10.0 mi Calm Calm - N/A   Clear
11:35 PM 38.1 °F 34.6 °F 13.8 °F 37% 29.96 in 10.0 mi North 4.6 mph - N/A   Clear
11:55 PM 37.2 °F 33.6 °F 13.8 °F 38% 29.97 in 10.0 mi North 4.6 mph - N/A   Clear